Time;durP1;ratioP1;P1;durP2;ratioP2;P2;SDS_P1;SDS_P2;PMS_P1;PMS_P2;Temp;Humidity;BMP_temperature;BMP_pressure;BME280_temperature;BME280_humidity;BME280_pressure;Samples;Min_cycle;Max_cycle;Signal;HPM_P1;HPM_P2
2021/05/26 18:24:33;;;;;;;2.95;1.33;;;19.80;58.90;;;;;;5092179;27;20724;-61
2021/05/26 18:27:02;;;;;;;1.83;1.10;;;19.80;55.90;;;;;;5083832;28;20059;-61
2021/05/26 18:29:31;;;;;;;2.15;1.20;;;19.00;52.40;;;;;;5065739;28;20048;-62
2021/05/26 18:31:59;;;;;;;2.72;1.40;;;18.10;51.30;;;;;;5083365;28;20052;-62
2021/05/26 18:34:26;;;;;;;2.60;0.90;;;17.30;52.20;;;;;;5083498;28;20055;-62
2021/05/26 18:36:54;;;;;;;1.15;0.90;;;16.80;52.70;;;;;;5066295;28;20047;-61
2021/05/26 18:39:22;;;;;;;1.42;1.02;;;16.30;53.30;;;;;;5084094;28;20492;-62
2021/05/26 18:41:50;;;;;;;1.42;0.88;;;15.80;54.70;;;;;;5060966;28;20055;-64
2021/05/26 18:44:17;;;;;;;4.82;1.17;;;15.60;55.50;;;;;;5084310;28;20376;-61
2021/05/26 18:46:45;;;;;;;1.38;1.27;;;15.30;56.20;;;;;;5084517;28;20408;-62
2021/05/26 18:49:13;;;;;;;1.38;1.00;;;15.10;56.80;;;;;;5084774;28;20460;-62
2021/05/26 18:51:42;;;;;;;1.45;1.20;;;14.90;57.30;;;;;;5083947;28;20041;-63
2021/05/26 18:54:11;;;;;;;1.48;1.38;;;14.80;57.80;;;;;;5063667;28;20459;-62
2021/05/26 18:56:39;;;;;;;2.30;1.35;;;14.70;58.00;;;;;;5083704;28;20063;-62
2021/05/26 18:59:07;;;;;;;2.58;1.52;;;14.60;58.40;;;;;;5083903;28;20059;-63
2021/05/26 19:01:35;;;;;;;1.20;1.10;;;14.50;58.80;;;;;;5083152;28;20048;-63
2021/05/26 19:04:05;;;;;;;5.50;1.77;;;14.40;59.00;;;;;;5078479;28;20055;-62
2021/05/26 19:06:34;;;;;;;2.15;1.83;;;14.40;59.20;;;;;;5083832;28;20052;-63
2021/05/26 19:09:02;;;;;;;2.45;1.60;;;14.30;59.40;;;;;;5083783;28;20048;-63
2021/05/26 19:11:30;;;;;;;2.17;1.92;;;14.20;59.70;;;;;;5083655;28;20063;-61
2021/05/26 19:13:58;;;;;;;3.45;2.10;;;14.20;60.00;;;;;;5083520;28;20055;-63
2021/05/26 19:16:26;;;;;;;3.67;1.95;;;14.10;60.20;;;;;;5083264;28;20048;-62
2021/05/26 19:18:54;;;;;;;6.97;2.10;;;14.10;60.40;;;;;;5064830;28;20497;-63
2021/05/26 19:21:22;;;;;;;4.45;2.10;;;14.10;60.60;;;;;;5083314;28;20424;-62
2021/05/26 19:23:50;;;;;;;3.85;1.80;;;14.10;60.70;;;;;;5082829;28;20056;-63
2021/05/26 19:26:18;;;;;;;4.68;1.73;;;14.00;61.00;;;;;;5082744;28;20063;-63
2021/05/26 19:28:46;;;;;;;3.28;2.03;;;14.00;61.20;;;;;;5064677;28;20055;-62
2021/05/26 19:31:14;;;;;;;3.70;2.38;;;13.90;61.40;;;;;;5082280;28;20059;-63
2021/05/26 19:33:42;;;;;;;3.78;1.98;;;13.90;61.70;;;;;;5064224;28;20045;-64
2021/05/26 19:36:10;;;;;;;4.93;2.30;;;13.80;61.80;;;;;;5069387;28;20052;-64
2021/05/26 19:38:38;;;;;;;3.15;1.90;;;13.80;62.00;;;;;;5069836;28;20062;-64
2021/05/26 19:41:06;;;;;;;6.45;2.30;;;13.80;62.40;;;;;;5069992;28;20070;-63
2021/05/26 19:43:34;;;;;;;4.25;2.10;;;13.70;62.60;;;;;;5070339;28;20048;-63
2021/05/26 19:46:01;;;;;;;5.22;2.20;;;13.70;62.90;;;;;;5070288;28;20048;-63
2021/05/26 19:48:29;;;;;;;4.20;2.20;;;13.60;63.20;;;;;;5069870;28;20063;-63
2021/05/26 19:50:57;;;;;;;2.60;2.08;;;13.50;63.70;;;;;;5051563;28;20041;-63
2021/05/26 19:53:26;;;;;;;3.03;2.30;;;13.40;64.00;;;;;;5050525;28;20432;-64
2021/05/26 19:55:53;;;;;;;2.95;2.13;;;13.30;64.40;;;;;;5050886;28;20049;-63
2021/05/26 19:58:22;;;;;;;3.30;1.85;;;13.30;64.60;;;;;;5051832;28;20049;-63
2021/05/26 20:00:49;;;;;;;3.97;1.83;;;13.20;65.00;;;;;;5061412;28;20048;-63
2021/05/26 20:03:37;;;;;;;2.50;1.70;;;13.00;65.30;;;;;;5031511;28;20061;-62
2021/05/26 20:06:06;;;;;;;2.92;1.75;;;12.90;65.70;;;;;;5031547;28;20512;-62
2021/05/26 20:08:34;;;;;;;4.50;1.90;;;12.80;66.20;;;;;;5048820;28;20053;-62
2021/05/26 20:11:02;;;;;;;3.10;1.88;;;12.80;66.40;;;;;;5015455;28;20041;-62
2021/05/26 20:13:30;;;;;;;5.93;2.00;;;12.70;66.70;;;;;;5031734;28;20064;-62
2021/05/26 20:15:58;;;;;;;6.22;1.98;;;12.70;67.00;;;;;;5049963;28;20055;-62
2021/05/26 20:18:26;;;;;;;3.25;1.98;;;12.60;67.40;;;;;;5046916;28;20493;-62
2021/05/26 20:20:54;;;;;;;2.83;1.90;;;12.50;67.60;;;;;;5049495;28;20049;-63
2021/05/26 20:23:22;;;;;;;4.10;1.98;;;12.50;67.60;;;;;;5031394;28;20053;-63
2021/05/26 20:25:50;;;;;;;4.53;2.08;;;12.50;67.70;;;;;;5031287;28;20063;-63
2021/05/26 20:28:18;;;;;;;3.65;1.90;;;12.50;67.90;;;;;;5046283;28;20146;-62
2021/05/26 20:30:46;;;;;;;2.83;1.65;;;12.50;68.00;;;;;;5041096;28;20053;-62
2021/05/26 20:33:14;;;;;;;5.30;2.00;;;12.50;68.20;;;;;;5068968;28;20060;-63
2021/05/26 20:35:41;;;;;;;3.40;1.98;;;12.40;68.20;;;;;;5068769;28;20389;-62
2021/05/26 20:38:12;;;;;;;3.05;2.10;;;12.40;68.30;;;;;;5068035;28;20055;-62
2021/05/26 20:40:40;;;;;;;2.58;2.30;;;12.50;68.40;;;;;;5067032;28;20060;-62
2021/05/26 20:43:07;;;;;;;6.03;2.20;;;12.40;68.50;;;;;;5049695;28;20469;-62
2021/05/26 20:45:35;;;;;;;3.55;2.17;;;12.40;68.60;;;;;;5048508;28;20056;-62
2021/05/26 20:48:03;;;;;;;3.58;2.53;;;12.40;68.70;;;;;;5028716;28;20049;-62
2021/05/26 20:50:31;;;;;;;5.85;2.95;;;12.40;68.80;;;;;;5048634;28;20508;-64
2021/05/26 20:52:59;;;;;;;5.53;3.28;;;12.40;68.80;;;;;;5048771;28;20053;-63
2021/05/26 20:55:27;;;;;;;258.40;141.40;;;12.40;69.00;;;;;;5047659;28;20405;-63
2021/05/26 20:57:55;;;;;;;292.65;176.88;;;12.30;69.10;;;;;;5030104;28;20413;-63
2021/05/26 21:00:25;;;;;;;93.78;58.60;;;12.30;69.20;;;;;;5048696;28;20064;-63
2021/05/26 21:02:54;;;;;;;22.20;14.45;;;12.30;69.40;;;;;;5032008;28;20548;-63
2021/05/26 21:05:24;;;;;;;8.93;6.32;;;12.30;69.60;;;;;;5068138;28;20064;-63
2021/05/26 21:07:52;;;;;;;10.55;5.70;;;12.30;69.80;;;;;;5048177;28;20041;-64
2021/05/26 21:10:20;;;;;;;6.18;5.57;;;12.20;69.90;;;;;;5032170;28;20069;-64
2021/05/26 21:12:48;;;;;;;15.05;11.10;;;12.20;70.20;;;;;;5016405;28;20057;-62
2021/05/26 21:15:16;;;;;;;26.67;17.58;;;12.10;70.40;;;;;;5035581;28;20055;-63
2021/05/26 21:17:46;;;;;;;77.47;47.10;;;12.00;70.80;;;;;;5026578;28;20061;-63
2021/05/26 21:20:15;;;;;;;104.78;65.10;;;11.90;71.20;;;;;;5025871;28;20099;-62
2021/05/26 21:22:43;;;;;;;93.90;55.95;;;11.80;71.60;;;;;;5052893;28;20045;-63
2021/05/26 21:25:14;;;;;;;47.38;29.70;;;11.70;72.20;;;;;;5047377;28;20405;-64
2021/05/26 21:27:43;;;;;;;46.38;24.88;;;11.50;72.70;;;;;;5047885;28;20053;-63
2021/05/26 21:30:13;;;;;;;14.52;9.63;;;11.40;73.10;;;;;;5044886;28;20409;-63
2021/05/26 21:32:42;;;;;;;6.40;5.55;;;11.30;73.40;;;;;;5025541;28;20049;-63
2021/05/26 21:35:16;;;;;;;9.32;5.32;;;11.20;73.70;;;;;;5026886;28;20052;-63
2021/05/26 21:37:44;;;;;;;18.85;9.25;;;11.10;74.10;;;;;;5028833;28;20060;-62
2021/05/26 21:40:13;;;;;;;11.02;5.78;;;11.10;74.30;;;;;;5018389;28;20047;-63
2021/05/26 21:42:41;;;;;;;15.00;7.88;;;11.10;74.50;;;;;;5066401;28;20419;-62
2021/05/26 21:45:09;;;;;;;8.82;5.63;;;11.00;74.70;;;;;;5053285;28;20053;-62
2021/05/26 21:47:37;;;;;;;11.80;5.30;;;11.00;74.90;;;;;;5046925;28;20045;-62
2021/05/26 21:50:06;;;;;;;4.82;3.80;;;10.90;75.20;;;;;;5035694;28;20057;-62
2021/05/26 21:52:34;;;;;;;6.43;4.28;;;10.90;75.40;;;;;;5033365;28;20053;-63
2021/05/26 21:55:04;;;;;;;7.90;3.88;;;10.90;75.50;;;;;;5032748;28;20052;-63
2021/05/26 21:57:33;;;;;;;4.95;3.85;;;10.90;75.50;;;;;;5033722;28;20068;-63
2021/05/26 22:00:01;;;;;;;12.35;3.97;;;10.90;75.50;;;;;;5033885;28;20064;-62
2021/05/26 22:02:31;;;;;;;5.25;3.85;;;10.90;75.60;;;;;;5035349;28;20068;-63
2021/05/26 22:04:59;;;;;;;5.53;3.60;;;11.00;75.70;;;;;;5033442;28;20061;-62
2021/05/26 22:07:27;;;;;;;5.18;3.33;;;11.00;75.60;;;;;;5016605;28;20072;-63
2021/05/26 22:09:54;;;;;;;5.22;3.08;;;11.10;75.60;;;;;;5035366;28;20428;-61
2021/05/26 22:12:22;;;;;;;4.68;3.47;;;11.20;75.70;;;;;;5033962;28;20081;-62
2021/05/26 22:14:50;;;;;;;6.20;3.65;;;11.20;75.60;;;;;;5033203;28;20072;-62
2021/05/26 22:17:18;;;;;;;4.95;3.33;;;11.30;75.70;;;;;;5017991;28;20045;-62
2021/05/26 22:19:46;;;;;;;5.97;3.10;;;11.30;75.80;;;;;;5044565;28;20505;-62
2021/05/26 22:22:13;;;;;;;6.90;3.38;;;11.30;75.90;;;;;;5047089;28;20071;-62
2021/05/26 22:24:41;;;;;;;10.50;3.08;;;11.30;75.90;;;;;;5046496;28;20057;-62
2021/05/26 22:27:09;;;;;;;11.15;4.00;;;11.30;76.00;;;;;;5029776;28;20056;-62
2021/05/26 22:29:37;;;;;;;7.45;3.90;;;11.30;76.10;;;;;;5013207;28;20052;-63
2021/05/26 22:32:05;;;;;;;3.85;3.20;;;11.30;76.20;;;;;;5047147;28;20068;-62
2021/05/26 22:34:33;;;;;;;6.72;3.83;;;11.30;76.30;;;;;;5047210;28;20065;-63
2021/05/26 22:37:01;;;;;;;9.90;4.40;;;11.30;76.40;;;;;;5062255;28;20045;-62
2021/05/26 22:39:29;;;;;;;9.95;4.15;;;11.30;76.50;;;;;;5066707;28;20052;-62
2021/05/26 22:41:56;;;;;;;7.13;4.47;;;11.30;76.70;;;;;;5049497;28;20052;-62
2021/05/26 22:44:37;;;;;;;6.57;4.18;;;11.20;76.80;;;;;;5049579;28;20087;-62
2021/05/26 22:47:05;;;;;;;7.47;4.70;;;11.20;77.00;;;;;;5048819;28;20053;-62
2021/05/26 22:49:33;;;;;;;8.05;4.50;;;11.10;77.10;;;;;;5067281;28;20053;-63
2021/05/26 22:52:01;;;;;;;6.30;4.22;;;11.00;77.30;;;;;;5065688;28;20071;-63
2021/05/26 22:54:28;;;;;;;6.63;4.57;;;11.00;77.60;;;;;;5009196;28;20049;-62
2021/05/26 22:56:56;;;;;;;6.38;3.63;;;11.00;77.70;;;;;;5009386;28;20053;-62
2021/05/26 22:59:24;;;;;;;10.23;4.00;;;10.90;77.80;;;;;;5025834;28;20056;-61
2021/05/26 23:01:52;;;;;;;4.70;3.65;;;10.90;77.90;;;;;;5026513;28;20052;-63
2021/05/26 23:04:19;;;;;;;7.50;4.18;;;10.90;78.10;;;;;;5046646;28;20049;-61
2021/05/26 23:06:48;;;;;;;6.68;3.72;;;10.80;78.30;;;;;;5029398;28;20064;-62
2021/05/26 23:09:17;;;;;;;8.32;3.88;;;10.80;78.50;;;;;;5029544;28;20045;-62
2021/05/26 23:11:46;;;;;;;5.32;3.63;;;10.70;78.80;;;;;;5050447;28;20413;-62
2021/05/26 23:14:14;;;;;;;4.80;3.80;;;10.60;79.10;;;;;;5066422;28;20484;-62
2021/05/26 23:16:41;;;;;;;8.48;3.80;;;10.50;79.40;;;;;;5070428;28;20060;-62
2021/05/26 23:19:10;;;;;;;4.95;3.80;;;10.30;79.70;;;;;;5070437;28;20083;-62
2021/05/26 23:21:39;;;;;;;6.22;3.70;;;10.30;80.10;;;;;;5070239;28;20063;-62
2021/05/26 23:24:07;;;;;;;5.28;4.20;;;10.10;80.50;;;;;;5052297;28;20064;-61
2021/05/26 23:26:38;;;;;;;5.82;3.88;;;10.00;80.80;;;;;;5052209;28;20059;-62
2021/05/26 23:29:06;;;;;;;9.50;4.35;;;9.80;81.20;;;;;;5070270;28;20048;-61
2021/05/26 23:31:34;;;;;;;5.47;3.97;;;9.70;81.50;;;;;;5056090;28;20060;-62
2021/05/26 23:34:01;;;;;;;4.85;4.35;;;9.60;81.80;;;;;;5032493;28;20057;-62
2021/05/26 23:36:29;;;;;;;8.77;3.88;;;9.50;82.10;;;;;;5050237;28;20063;-62
2021/05/26 23:38:57;;;;;;;5.45;4.68;;;9.30;82.40;;;;;;5050236;28;20052;-62
2021/05/26 23:41:26;;;;;;;7.50;4.38;;;9.30;82.70;;;;;;5016310;28;20060;-62
2021/05/26 23:43:53;;;;;;;6.80;4.55;;;9.20;82.90;;;;;;5050138;28;20057;-61
2021/05/26 23:46:21;;;;;;;9.45;4.65;;;9.10;83.20;;;;;;5032448;28;20061;-62
2021/05/26 23:48:49;;;;;;;5.32;4.50;;;9.00;83.40;;;;;;5032499;28;20060;-62
2021/05/26 23:51:17;;;;;;;5.05;4.57;;;8.90;83.70;;;;;;5011817;28;20064;-62
2021/05/26 23:53:44;;;;;;;11.45;5.03;;;8.80;83.90;;;;;;5029837;28;20129;-61
2021/05/26 23:56:12;;;;;;;5.50;4.85;;;8.80;84.20;;;;;;5047079;28;20052;-61
2021/05/26 23:58:40;;;;;;;8.05;5.07;;;8.70;84.30;;;;;;5031926;28;20049;-61
